Time;durP1;ratioP1;P1;durP2;ratioP2;P2;SDS_P1;SDS_P2;PMS_P1;PMS_P2;Temp;Humidity;BMP_temperature;BMP_pressure;BME280_temperature;BME280_humidity;BME280_pressure;Samples;Min_cycle;Max_cycle;Signal;HPM_P1;HPM_P2
2023/08/24 00:02:04;;;;;;;22.63;10.37;;;;;;;23.90;59.65;100442.45;123913;1105;104261;-73
2023/08/24 00:04:35;;;;;;;20.60;10.37;;;;;;;23.84;59.83;100442.58;123947;1105;104182;-74
2023/08/24 00:07:06;;;;;;;20.97;10.77;;;;;;;23.78;60.06;100446.25;123919;1105;104249;-74
2023/08/24 00:09:39;;;;;;;19.17;10.43;;;;;;;23.74;60.29;100447.21;123907;1105;104360;-73
2023/08/24 00:12:11;;;;;;;22.57;10.90;;;;;;;23.71;60.44;100446.40;123906;1105;104397;-73
2023/08/24 00:14:42;;;;;;;20.00;11.17;;;;;;;23.67;60.82;100437.55;123947;1105;102413;-73
2023/08/24 00:17:14;;;;;;;20.97;10.63;;;;;;;23.65;61.06;100439.35;123826;1105;104134;-73
2023/08/24 00:19:46;;;;;;;22.95;10.85;;;;;;;23.60;60.79;100444.80;123916;1105;104185;-74
2023/08/24 00:22:18;;;;;;;24.43;11.00;;;;;;;23.56;61.24;100440.44;123919;1104;104261;-73
2023/08/24 00:24:49;;;;;;;21.00;11.20;;;;;;;23.49;61.44;100434.28;123875;1105;104195;-73
2023/08/24 00:27:21;;;;;;;19.73;10.70;;;;;;;23.46;61.53;100433.47;123880;1105;104392;-73
2023/08/24 00:29:52;;;;;;;24.33;11.33;;;;;;;23.47;61.59;100435.25;123919;1105;104233;-73
2023/08/24 00:32:24;;;;;;;23.77;10.87;;;;;;;23.43;61.84;100438.88;123954;1105;101874;-73
2023/08/24 00:34:56;;;;;;;21.17;11.17;;;;;;;23.37;62.04;100437.19;123937;1105;104195;-73
2023/08/24 00:37:28;;;;;;;21.37;11.20;;;;;;;23.31;62.37;100435.52;123874;1105;104485;-73
2023/08/24 00:40:00;;;;;;;18.83;10.77;;;;;;;23.27;62.00;100430.25;123927;1105;104289;-73
2023/08/24 00:42:32;;;;;;;23.37;11.27;;;;;;;23.24;61.95;100427.63;123880;1105;104306;-73
2023/08/24 00:45:03;;;;;;;19.60;10.07;;;;;;;23.21;62.37;100416.97;123961;1105;102099;-73
2023/08/24 00:47:35;;;;;;;22.63;11.03;;;;;;;23.19;62.36;100414.33;123906;1103;104261;-73
2023/08/24 00:50:09;;;;;;;26.60;11.07;;;;;;;23.18;62.86;100417.03;123910;1105;104443;-73
2023/08/24 00:52:41;;;;;;;23.17;10.50;;;;;;;23.17;62.69;100416.16;123929;1105;104287;-73
2023/08/24 00:55:14;;;;;;;20.23;10.77;;;;;;;23.21;62.20;100420.52;123916;1105;104253;-73
2023/08/24 00:57:45;;;;;;;17.50;10.37;;;;;;;23.27;62.70;100420.42;123904;1105;104182;-74
2023/08/24 01:00:17;;;;;;;25.93;10.90;;;;;;;23.30;62.69;100411.45;123937;1104;104264;-73
2023/08/24 01:02:49;;;;;;;24.30;10.53;;;;;;;23.29;62.60;100413.23;123839;1105;104281;-73
2023/08/24 01:05:21;;;;;;;21.00;10.77;;;;;;;23.22;62.33;100424.08;123903;1105;101878;-74
2023/08/24 01:07:52;;;;;;;21.43;10.37;;;;;;;23.15;62.69;100417.95;123962;1105;104191;-74
2023/08/24 01:10:25;;;;;;;17.70;10.20;;;;;;;23.08;62.93;100417.19;123895;1105;104361;-73
2023/08/24 01:13:08;;;;;;;21.37;10.70;;;;;;;23.04;63.03;100415.43;123875;1105;103742;-73
2023/08/24 01:15:49;;;;;;;20.93;10.40;;;;;;;23.03;63.08;100420.80;123933;1105;104351;-73
2023/08/24 01:18:22;;;;;;;19.00;11.00;;;;;;;22.97;63.45;100419.14;123897;1105;103404;-73
2023/08/24 01:20:54;;;;;;;23.90;10.80;;;;;;;22.89;63.30;100411.23;123932;1105;104188;-73
2023/08/24 01:23:42;;;;;;;18.77;10.30;;;;;;;22.87;63.60;100412.16;123966;1105;102619;-73
2023/08/24 01:26:18;;;;;;;20.63;10.80;;;;;;;22.87;63.78;100418.38;123931;1105;104279;-74
2023/08/24 01:28:51;;;;;;;21.77;10.33;;;;;;;22.88;64.01;100417.48;123870;1105;109271;-73
2023/08/24 01:31:22;;;;;;;18.23;9.80;;;;;;;22.86;63.58;100416.64;123953;1105;104179;-73
2023/08/24 01:33:53;;;;;;;19.63;10.10;;;;;;;22.87;63.87;100413.03;123884;1105;102501;-73
2023/08/24 01:36:25;;;;;;;19.77;10.57;;;;;;;22.92;64.40;100416.54;123953;1105;104342;-73
2023/08/24 01:39:12;;;;;;;15.80;9.80;;;;;;;22.90;64.03;100410.30;123907;1105;104251;-74
2023/08/24 01:41:49;;;;;;;20.70;10.53;;;;;;;22.86;64.14;100411.28;123890;1105;104345;-72
2023/08/24 01:44:24;;;;;;;21.60;10.80;;;;;;;22.87;64.46;100413.03;123885;1105;104233;-73
2023/08/24 01:46:59;;;;;;;21.25;10.65;;;;;;;22.90;64.57;100415.66;123941;1105;104172;-73
2023/08/24 01:49:33;;;;;;;18.63;10.13;;;;;;;22.85;64.24;100406.84;123909;1105;104285;-73
2023/08/24 01:52:05;;;;;;;21.12;10.18;;;;;;;22.77;65.03;100406.09;123950;1105;104185;-72
2023/08/24 01:54:37;;;;;;;21.40;10.60;;;;;;;22.73;64.65;100415.05;123907;1105;104284;-72
2023/08/24 01:57:08;;;;;;;20.43;10.37;;;;;;;22.68;64.66;100411.58;123887;1105;104182;-73
2023/08/24 01:59:40;;;;;;;21.67;11.10;;;;;;;22.63;65.11;100414.32;123871;1105;104364;-72
2023/08/24 02:02:11;;;;;;;18.70;10.50;;;;;;;22.58;65.12;100411.72;123876;1105;104258;-72
2023/08/24 02:04:42;;;;;;;18.77;10.60;;;;;;;22.57;65.11;100412.61;123912;1105;104281;-72
2023/08/24 02:07:14;;;;;;;22.00;12.03;;;;;;;22.55;65.02;100410.89;123882;1105;101898;-72
2023/08/24 02:09:45;;;;;;;20.80;10.60;;;;;;;22.53;65.01;100416.27;123906;1105;104000;-72
2023/08/24 02:12:17;;;;;;;22.17;11.47;;;;;;;22.49;65.91;100424.35;123903;1104;104293;-72
2023/08/24 02:14:48;;;;;;;19.27;11.17;;;;;;;22.38;66.56;100409.34;123972;1105;104189;-72
2023/08/24 02:17:20;;;;;;;18.83;9.93;;;;;;;22.32;65.88;100424.59;123942;1105;104188;-72
2023/08/24 02:19:52;;;;;;;19.53;10.73;;;;;;;22.24;66.48;100417.52;123851;1105;104366;-72
2023/08/24 02:22:23;;;;;;;23.30;11.37;;;;;;;22.19;66.63;100419.38;123911;1105;104182;-72
2023/08/24 02:24:54;;;;;;;22.37;10.87;;;;;;;22.13;67.03;100430.14;123954;1105;104740;-72
2023/08/24 02:27:26;;;;;;;18.63;10.47;;;;;;;22.06;67.26;100431.11;123895;1105;104327;-72
2023/08/24 02:29:57;;;;;;;21.97;11.40;;;;;;;22.02;67.04;100429.41;123908;1105;104317;-72
2023/08/24 02:32:29;;;;;;;20.93;10.43;;;;;;;21.97;66.86;100424.13;123941;1104;102107;-72
2023/08/24 02:35:00;;;;;;;19.80;11.33;;;;;;;21.96;67.74;100424.14;123914;1105;104179;-72
2023/08/24 02:37:31;;;;;;;20.10;10.93;;;;;;;21.93;67.65;100425.05;123944;1105;104192;-72
2023/08/24 02:40:03;;;;;;;20.30;11.33;;;;;;;21.88;67.20;100430.45;123965;1105;101924;-72
2023/08/24 02:42:36;;;;;;;22.70;10.70;;;;;;;21.85;67.37;100425.14;123951;1105;104252;-72
2023/08/24 02:45:09;;;;;;;21.90;11.05;;;;;;;21.84;67.70;100426.03;123933;1105;104290;-72
2023/08/24 02:47:43;;;;;;;21.73;12.20;;;;;;;21.83;67.45;100432.30;123927;1104;104210;-72
2023/08/24 02:50:14;;;;;;;22.10;11.40;;;;;;;21.81;68.08;100435.88;123913;1105;104211;-72
2023/08/24 02:52:46;;;;;;;21.53;10.97;;;;;;;21.80;68.11;100431.42;123955;1105;104213;-72
2023/08/24 02:55:18;;;;;;;20.77;11.40;;;;;;;21.79;68.78;100424.34;123955;1106;104272;-72
2023/08/24 02:57:49;;;;;;;20.73;11.40;;;;;;;21.79;68.36;100427.01;123863;1105;104699;-72
2023/08/24 03:00:21;;;;;;;22.80;11.37;;;;;;;21.77;68.24;100419.02;123913;1105;104233;-73
2023/08/24 03:02:53;;;;;;;19.03;11.20;;;;;;;21.74;69.18;100429.73;123901;1105;104261;-73
2023/08/24 03:05:24;;;;;;;19.33;11.37;;;;;;;21.69;69.22;100426.20;123953;1105;104249;-73
2023/08/24 03:07:55;;;;;;;23.43;11.77;;;;;;;21.63;69.71;100424.51;123873;1105;103414;-72
2023/08/24 03:10:27;;;;;;;20.33;10.80;;;;;;;21.55;69.44;100418.38;123871;1105;104258;-73
2023/08/24 03:12:58;;;;;;;21.20;11.37;;;;;;;21.50;69.54;100426.44;123901;1105;104178;-73
2023/08/24 03:15:29;;;;;;;20.47;12.30;;;;;;;21.48;69.53;100427.31;123938;1105;104188;-73
2023/08/24 03:18:01;;;;;;;22.07;12.23;;;;;;;21.46;69.44;100419.31;123923;1105;104699;-73
2023/08/24 03:20:32;;;;;;;28.30;12.67;;;;;;;21.47;70.43;100420.19;123829;1105;104176;-74
2023/08/24 03:23:04;;;;;;;20.13;11.73;;;;;;;21.46;70.52;100423.78;123896;1105;104416;-74
2023/08/24 03:25:38;;;;;;;22.17;11.37;;;;;;;21.42;69.74;100432.70;123898;1105;102067;-74
2023/08/24 03:28:11;;;;;;;23.47;11.70;;;;;;;21.37;69.67;100438.96;123927;1104;104785;-73
2023/08/24 03:30:52;;;;;;;22.03;11.47;;;;;;;21.35;70.03;100437.23;123864;1106;104444;-73
2023/08/24 03:33:23;;;;;;;21.90;11.30;;;;;;;21.35;69.84;100439.90;123911;1105;104252;-73
2023/08/24 03:35:55;;;;;;;20.25;11.20;;;;;;;21.34;69.35;100438.99;123900;1106;102523;-73
2023/08/24 03:38:26;;;;;;;20.40;10.87;;;;;;;21.35;69.35;100445.23;123933;1105;104211;-73
2023/08/24 03:41:05;;;;;;;21.70;11.50;;;;;;;21.37;69.29;100451.44;123886;1105;104252;-73
2023/08/24 03:43:38;;;;;;;18.40;10.53;;;;;;;21.41;70.30;100445.18;123990;1105;104191;-73
2023/08/24 03:46:09;;;;;;;21.97;11.37;;;;;;;21.50;69.57;100454.89;123991;1105;104252;-73
2023/08/24 03:48:40;;;;;;;19.53;11.37;;;;;;;21.59;70.38;100451.26;124014;1105;104248;-75
2023/08/24 03:51:12;;;;;;;19.27;11.10;;;;;;;21.61;70.14;100452.12;123971;1105;104192;-75
2023/08/24 03:53:43;;;;;;;20.63;11.17;;;;;;;21.61;70.40;100452.12;124849;1105;104258;-76
2023/08/24 03:56:16;;;;;;;26.60;11.60;;;;;;;21.61;69.90;100452.12;125501;1105;104262;-76
2023/08/24 03:58:47;;;;;;;22.03;10.77;;;;;;;21.64;69.97;100457.42;125751;1105;101920;-76
2023/08/24 04:01:18;;;;;;;23.07;11.17;;;;;;;21.65;70.38;100457.41;125358;1105;102163;-75
2023/08/24 04:03:50;;;;;;;18.90;10.27;;;;;;;21.68;70.00;100461.84;124214;1106;104179;-76
2023/08/24 04:06:21;;;;;;;19.87;10.87;;;;;;;21.67;70.19;100468.95;123970;1105;102252;-75
2023/08/24 04:08:53;;;;;;;26.03;12.00;;;;;;;21.64;69.75;100463.64;123970;1106;101852;-75
2023/08/24 04:11:24;;;;;;;21.83;11.40;;;;;;;21.63;70.38;100460.98;123973;1105;104181;-75
2023/08/24 04:13:56;;;;;;;18.43;11.50;;;;;;;21.61;70.39;100461.00;124329;1105;102249;-76
2023/08/24 04:16:27;;;;;;;19.60;11.03;;;;;;;21.65;70.41;100460.08;123943;1105;101993;-76
2023/08/24 04:18:58;;;;;;;20.87;11.80;;;;;;;21.69;69.92;100458.25;123914;1105;102085;-75
2023/08/24 04:21:29;;;;;;;23.93;12.03;;;;;;;21.73;70.41;100460.00;123922;1105;101836;-74
2023/08/24 04:24:01;;;;;;;22.37;11.27;;;;;;;21.77;70.37;100464.42;123988;1105;104204;-75
2023/08/24 04:26:32;;;;;;;20.87;11.40;;;;;;;21.82;70.48;100461.70;123991;1105;104179;-76
2023/08/24 04:29:04;;;;;;;21.63;12.23;;;;;;;21.82;70.78;100464.36;124049;1105;104214;-75
2023/08/24 04:31:37;;;;;;;22.30;11.87;;;;;;;21.82;70.81;100470.58;123884;1105;104194;-74
2023/08/24 04:34:09;;;;;;;22.03;11.80;;;;;;;21.85;70.41;100472.34;123930;1105;104271;-74
2023/08/24 04:36:40;;;;;;;22.77;11.63;;;;;;;21.86;70.11;100469.66;123948;1105;102010;-75
2023/08/24 04:39:11;;;;;;;20.67;11.07;;;;;;;21.87;70.06;100468.73;123963;1105;104326;-76
2023/08/24 04:41:43;;;;;;;19.30;11.50;;;;;;;21.89;69.89;100468.72;123979;1105;104188;-75
2023/08/24 04:44:14;;;;;;;24.20;11.63;;;;;;;21.96;70.04;100472.22;124061;1104;104264;-76
2023/08/24 04:46:45;;;;;;;21.33;10.63;;;;;;;22.04;70.19;100475.68;123948;1105;101906;-76
2023/08/24 04:49:17;;;;;;;23.83;11.17;;;;;;;22.08;70.36;100474.75;123968;1105;102016;-76
2023/08/24 04:51:48;;;;;;;21.43;11.37;;;;;;;22.12;70.52;100480.94;123953;1105;101855;-76
2023/08/24 04:54:19;;;;;;;19.77;10.73;;;;;;;22.15;70.11;100479.09;123928;1105;104299;-75
2023/08/24 04:56:51;;;;;;;22.37;11.13;;;;;;;22.19;70.36;100483.52;123910;1105;104195;-74
2023/08/24 04:59:22;;;;;;;21.87;11.27;;;;;;;22.25;70.59;100482.53;123925;1105;104246;-74
2023/08/24 05:01:54;;;;;;;22.43;11.90;;;;;;;22.30;70.56;100482.47;123921;1104;101990;-75
2023/08/24 05:04:25;;;;;;;22.27;11.03;;;;;;;22.36;69.81;100480.66;123852;1105;104264;-75
2023/08/24 05:06:56;;;;;;;21.90;10.97;;;;;;;22.43;70.61;100484.13;123988;1104;104210;-74
2023/08/24 05:09:28;;;;;;;21.53;10.70;;;;;;;22.51;70.17;100490.24;123888;1105;101926;-75
2023/08/24 05:12:02;;;;;;;21.70;10.90;;;;;;;22.61;70.06;100485.67;123909;1105;104288;-75
2023/08/24 05:14:34;;;;;;;22.63;11.67;;;;;;;22.71;70.23;100481.06;123885;1105;102033;-74
2023/08/24 05:17:06;;;;;;;21.50;10.77;;;;;;;22.81;70.04;100480.00;123904;1105;104309;-74
2023/08/24 05:19:37;;;;;;;24.40;11.10;;;;;;;22.93;69.94;100485.17;123937;1105;104287;-75
2023/08/24 05:22:08;;;;;;;22.27;9.97;;;;;;;23.03;69.63;100485.94;124024;1105;102519;-77
2023/08/24 05:24:47;;;;;;;19.47;10.00;;;;;;;23.17;69.77;100485.74;125418;1104;101735;-74
2023/08/24 05:27:19;;;;;;;23.73;10.93;;;;;;;23.30;69.72;100481.06;123951;1105;103707;-73
2023/08/24 05:29:50;;;;;;;22.63;10.13;;;;;;;23.42;69.40;100483.53;124578;1105;101899;-74
2023/08/24 05:32:22;;;;;;;20.53;10.03;;;;;;;23.51;69.23;100487.81;124150;1105;104230;-73
2023/08/24 05:34:56;;;;;;;20.17;10.27;;;;;;;23.58;68.73;100473.41;125177;1105;104198;-73
2023/08/24 05:37:27;;;;;;;24.47;10.20;;;;;;;23.64;68.55;100470.63;125835;1105;101810;-75
2023/08/24 05:40:04;;;;;;;22.13;9.70;;;;;;;23.74;68.44;100470.45;125883;1104;102360;-71
2023/08/24 05:42:48;;;;;;;19.07;9.97;;;;;;;23.82;68.33;100474.73;124316;1106;104210;-76
2023/08/24 05:45:20;;;;;;;23.57;9.43;;;;;;;23.92;68.01;100474.58;125486;1104;101927;-74
2023/08/24 05:47:54;;;;;;;21.93;9.90;;;;;;;23.99;67.40;100471.75;124261;1105;102351;-72
2023/08/24 05:50:25;;;;;;;22.23;9.50;;;;;;;24.03;67.35;100470.78;124384;1105;102100;-75
2023/08/24 05:52:57;;;;;;;23.27;9.33;;;;;;;24.08;66.74;100476.05;126536;1104;102051;-75
2023/08/24 05:55:31;;;;;;;24.67;9.53;;;;;;;24.13;66.49;100474.15;124168;1105;102100;-75
2023/08/24 05:58:02;;;;;;;21.77;8.83;;;;;;;24.24;65.89;100479.29;124237;1105;102354;-74
2023/08/24 06:00:34;;;;;;;21.87;10.13;;;;;;;24.35;66.58;100479.94;124069;1105;104229;-74
2023/08/24 06:03:09;;;;;;;19.10;9.83;;;;;;;24.47;65.58;100483.29;124046;1105;104287;-78
2023/08/24 06:05:43;;;;;;;21.07;8.93;;;;;;;24.59;65.55;100485.73;124221;1103;104339;-80
2023/08/24 06:08:22;;;;;;;18.17;8.67;;;;;;;24.71;64.55;100482.77;125089;1105;102433;-77
2023/08/24 06:10:54;;;;;;;17.00;8.00;;;;;;;24.84;64.61;100482.45;125365;1104;102189;-75
2023/08/24 06:13:29;;;;;;;20.45;9.30;;;;;;;24.98;64.31;100480.35;124204;1105;104214;-77
2023/08/24 06:16:01;;;;;;;19.93;9.07;;;;;;;25.08;64.23;100484.55;124200;1105;101836;-74
2023/08/24 06:18:35;;;;;;;16.13;8.23;;;;;;;25.19;64.25;100480.73;124080;1105;102075;-76
2023/08/24 06:21:08;;;;;;;16.37;6.90;;;;;;;25.24;63.12;100482.39;124413;1104;104335;-76
2023/08/24 06:23:44;;;;;;;17.53;7.33;;;;;;;25.33;63.10;100486.66;124397;1105;102171;-77
2023/08/24 06:26:18;;;;;;;16.23;7.13;;;;;;;25.43;62.11;100479.23;124729;1105;101996;-78
2023/08/24 06:28:51;;;;;;;;;;;;;;;25.55;62.30;100478.05;124788;1104;104178;-74
2023/08/24 06:31:26;;;;;;;20.27;6.97;;;;;;;25.67;61.72;100480.41;124148;1105;102604;-77
2023/08/24 06:33:58;;;;;;;17.97;6.70;;;;;;;25.81;61.32;100472.84;125114;1105;104076;-78
2023/08/24 06:36:35;;;;;;;22.90;7.50;;;;;;;26.01;60.93;100476.81;125453;1104;104284;-78
2023/08/24 06:39:14;;;;;;;15.70;6.60;;;;;;;26.17;60.81;100480.80;125350;1104;101919;-76
2023/08/24 06:41:53;;;;;;;23.17;6.87;;;;;;;26.26;60.00;100476.97;124722;1105;101852;-79
2023/08/24 06:44:31;;;;;;;21.37;7.10;;;;;;;26.33;59.97;100481.25;125803;1105;104252;-78
2023/08/24 06:47:06;;;;;;;23.83;7.17;;;;;;;26.43;59.97;100471.09;124103;1105;104220;-78
2023/08/24 06:49:41;;;;;;;22.45;7.45;;;;;;;26.51;59.57;100478.92;126174;1104;101715;-80
2023/08/24 06:52:26;;;;;;;20.70;6.90;;;;;;;26.55;58.63;100480.57;126112;1105;101687;-81
2023/08/24 06:55:04;;;;;;;19.60;7.67;;;;;;;26.57;58.33;100475.14;124304;1105;101860;-78
2023/08/24 06:57:36;;;;;;;20.83;7.40;;;;;;;26.61;58.20;100485.77;125099;1105;101976;-75
2023/08/24 07:00:14;;;;;;;20.67;7.23;;;;;;;26.68;57.71;100475.75;124462;1105;104412;-78
2023/08/24 07:02:48;;;;;;;19.60;7.60;;;;;;;26.74;57.01;100478.25;124294;1105;101942;-77
2023/08/24 07:05:20;;;;;;;23.63;7.70;;;;;;;26.77;57.12;100475.45;124043;1105;101886;-76
2023/08/24 07:07:53;;;;;;;20.77;7.20;;;;;;;26.83;57.00;100483.34;125763;1104;104230;-80
2023/08/24 07:10:25;;;;;;;21.03;7.70;;;;;;;26.82;56.82;100481.56;125329;1105;104273;-79
2023/08/24 07:13:03;;;;;;;23.20;7.67;;;;;;;26.75;56.27;100477.30;124330;1105;104252;-81
2023/08/24 07:15:39;;;;;;;22.83;8.00;;;;;;;26.68;56.30;100487.38;124327;1105;104192;-79
2023/08/24 07:18:12;;;;;;;20.67;6.73;;;;;;;26.62;56.37;100484.84;124337;1105;101848;-79
2023/08/24 07:20:44;;;;;;;20.77;7.00;;;;;;;26.61;56.18;100479.52;124122;1105;102051;-78
2023/08/24 07:23:21;;;;;;;17.30;6.70;;;;;;;26.60;56.25;100480.43;123926;1105;102954;-78
2023/08/24 07:29:06;;;;;;;16.17;6.70;;;;;;;26.71;55.89;100481.03;125394;1104;104076;-78
2023/08/24 07:31:37;;;;;;;;;;;;;;;26.77;56.29;100478.15;125339;1105;104269;-78
2023/08/24 07:34:10;;;;;;;19.00;6.73;;;;;;;26.86;56.38;100476.95;126040;1104;101627;-80
2023/08/24 07:36:48;;;;;;;17.30;7.13;;;;;;;27.05;55.75;100475.44;125653;1104;104230;-78
2023/08/24 07:39:26;;;;;;;17.37;6.97;;;;;;;27.39;55.84;100471.61;125896;1103;104204;-75
2023/08/24 07:42:13;;;;;;;17.83;7.30;;;;;;;27.72;55.36;100481.26;124695;1105;102424;-80
2023/08/24 07:44:47;;;;;;;17.20;6.73;;;;;;;28.03;55.51;100470.26;125312;1104;101846;-79
2023/08/24 07:47:29;;;;;;;17.67;7.47;;;;;;;28.21;54.87;100474.09;125381;1104;104262;-79
2023/08/24 07:50:07;;;;;;;18.00;6.77;;;;;;;28.36;55.06;100466.34;125174;1105;103278;-74
2023/08/24 07:52:43;;;;;;;12.67;5.87;;;;;;;28.58;55.27;100467.30;123989;1105;104491;-77
2023/08/24 07:59:06;;;;;;;14.55;6.10;;;;;;;28.97;53.83;100463.92;125109;1105;102007;-77
2023/08/24 08:01:50;;;;;;;13.73;6.00;;;;;;;29.07;53.66;100458.14;125004;1105;104249;-75
2023/08/24 08:04:30;;;;;;;18.37;6.00;;;;;;;29.27;53.24;100454.63;124084;1105;104188;-77
2023/08/24 08:07:14;;;;;;;16.07;6.03;;;;;;;29.33;52.57;100457.94;125197;1105;106962;-74
2023/08/24 08:09:50;;;;;;;12.13;5.65;;;;;;;29.32;51.86;100460.70;125129;1104;102216;-77
2023/08/24 08:12:21;;;;;;;19.87;6.90;;;;;;;29.31;51.43;100462.54;124176;1105;101997;-79
2023/08/24 08:14:53;;;;;;;15.63;6.40;;;;;;;29.40;51.21;100451.34;124215;1105;101868;-78
2023/08/24 08:17:42;;;;;;;16.87;6.40;;;;;;;29.43;51.12;100455.70;124011;1105;104284;-78
2023/08/24 08:20:44;;;;;;;11.47;5.50;;;;;;;29.59;51.39;100455.91;124905;1105;104210;-76
2023/08/24 08:23:28;;;;;;;15.80;5.97;;;;;;;29.86;50.38;100458.38;125368;1104;101782;-78
2023/08/24 08:26:22;;;;;;;15.20;5.83;;;;;;;30.17;50.27;100454.23;123918;1105;104315;-74
2023/08/24 08:29:29;;;;;;;10.37;5.67;;;;;;;30.26;49.41;100451.09;124063;1104;104316;-74
2023/08/24 08:32:32;;;;;;;;;;;;;;;;;;;;;
2023/08/24 08:35:54;;;;;;;13.30;5.87;;;;;;;30.67;47.75;100450.09;123873;1106;102004;-76
2023/08/24 08:38:54;;;;;;;13.60;6.17;;;;;;;30.82;47.70;100449.34;124066;1105;104253;-76
2023/08/24 08:41:47;;;;;;;14.77;5.70;;;;;;;30.96;47.07;100445.94;124540;1105;101871;-77
2023/08/24 08:44:25;;;;;;;15.33;5.83;;;;;;;30.95;46.25;100439.66;124093;1105;102100;-76
2023/08/24 08:47:10;;;;;;;13.00;5.23;;;;;;;30.94;46.42;100443.31;125070;1105;102454;-76
2023/08/24 08:49:43;;;;;;;11.53;5.30;;;;;;;30.89;45.69;100436.39;124381;1105;102755;-75
2023/08/24 08:52:20;;;;;;;13.60;4.92;;;;;;;30.88;45.21;100432.78;124153;1105;104214;-76
2023/08/24 08:54:53;;;;;;;9.73;4.90;;;;;;;30.92;44.68;100428.97;124262;1105;104185;-78
2023/08/24 08:57:26;;;;;;;9.30;4.90;;;;;;;31.09;44.06;100422.73;124020;1105;104313;-75
2023/08/24 09:00:00;;;;;;;13.20;4.80;;;;;;;31.30;44.01;100417.16;124109;1105;104181;-74
2023/08/24 09:02:36;;;;;;;9.87;4.63;;;;;;;31.29;42.32;100423.52;125514;1104;104059;-77
2023/08/24 09:05:25;;;;;;;9.30;4.73;;;;;;;31.22;41.64;100422.97;124511;1106;104227;-77
2023/08/24 09:08:27;;;;;;;13.00;5.00;;;;;;;31.32;41.81;100418.84;125609;1103;112028;-74
2023/08/24 09:11:09;;;;;;;9.13;4.80;;;;;;;31.30;42.31;100411.73;124111;1105;104268;-75
2023/08/24 09:13:46;;;;;;;12.57;5.10;;;;;;;31.27;41.20;100422.73;124167;1105;103219;-79
2023/08/24 09:16:20;;;;;;;8.93;4.63;;;;;;;31.42;41.38;100407.52;124415;1105;104090;-79
2023/08/24 09:18:54;;;;;;;11.73;5.10;;;;;;;31.50;40.75;100408.84;124696;1105;104670;-75
2023/08/24 09:21:29;;;;;;;7.63;4.63;;;;;;;31.54;40.88;100415.03;124343;1105;104280;-78
2023/08/24 09:24:09;;;;;;;9.37;4.60;;;;;;;31.73;40.88;100414.91;125775;1105;101849;-80
2023/08/24 09:26:48;;;;;;;14.57;4.60;;;;;;;31.85;40.72;100397.97;125166;1105;102051;-78
2023/08/24 09:29:21;;;;;;;10.90;5.03;;;;;;;32.01;40.50;100405.27;126484;1103;101712;-80
2023/08/24 09:31:57;;;;;;;12.33;4.80;;;;;;;32.02;40.22;100399.75;125070;1105;104204;-78
2023/08/24 09:35:16;;;;;;;7.83;4.53;;;;;;;32.01;40.21;100406.13;124129;1105;104185;-77
2023/08/24 09:38:07;;;;;;;11.47;4.73;;;;;;;31.93;40.25;100407.50;124097;1105;104214;-76
2023/08/24 09:40:51;;;;;;;8.63;4.53;;;;;;;31.81;39.75;100399.09;124128;1105;104201;-75
2023/08/24 09:43:38;;;;;;;12.47;4.97;;;;;;;31.74;39.33;100400.37;124041;1105;104332;-76
2023/08/24 09:46:11;;;;;;;12.90;4.67;;;;;;;31.85;39.50;100395.26;123897;1105;104294;-74
2023/08/24 09:48:59;;;;;;;10.50;4.80;;;;;;;31.97;39.13;100401.83;124817;1104;102291;-76
2023/08/24 09:51:34;;;;;;;10.03;4.80;;;;;;;32.04;38.26;100394.24;123837;1105;104256;-74
2023/08/24 09:54:09;;;;;;;8.73;4.47;;;;;;;32.17;38.33;100389.89;123932;1105;104329;-72
2023/08/24 09:56:41;;;;;;;9.07;4.63;;;;;;;32.25;38.79;100400.32;123888;1105;104073;-73
2023/08/24 09:59:24;;;;;;;7.87;4.53;;;;;;;32.32;38.20;100392.69;123898;1105;104175;-75
2023/08/24 10:01:57;;;;;;;9.23;4.70;;;;;;;32.32;38.22;100388.16;123944;1105;104182;-75
2023/08/24 10:04:35;;;;;;;7.37;4.57;;;;;;;32.38;37.64;100389.63;123906;1106;104195;-74
2023/08/24 10:07:11;;;;;;;11.17;4.63;;;;;;;32.50;37.72;100388.92;124173;1105;101928;-75
2023/08/24 10:09:54;;;;;;;5.93;4.43;;;;;;;32.66;37.64;100388.94;124230;1105;101970;-74
2023/08/24 10:12:33;;;;;;;10.05;4.90;;;;;;;32.82;37.69;100382.60;124048;1105;102070;-74
2023/08/24 10:15:08;;;;;;;11.63;4.97;;;;;;;33.03;36.95;100380.45;123996;1105;104237;-74
2023/08/24 10:17:43;;;;;;;10.90;4.93;;;;;;;33.11;36.76;100373.60;124293;1105;104182;-76
2023/08/24 10:20:28;;;;;;;7.47;4.60;;;;;;;33.31;36.73;100369.67;124171;1105;104222;-78
2023/08/24 10:23:05;;;;;;;10.03;4.97;;;;;;;33.50;36.30;100373.97;124300;1105;104238;-78
2023/08/24 10:25:45;;;;;;;9.50;4.90;;;;;;;33.62;36.00;100372.34;125632;1105;101942;-77
2023/08/24 10:28:27;;;;;;;12.57;5.00;;;;;;;33.50;35.88;100369.43;124683;1105;104332;-78
2023/08/24 10:31:07;;;;;;;13.87;5.00;;;;;;;33.50;35.45;100360.38;126417;1104;103737;-80
2023/08/24 10:33:53;;;;;;;9.30;4.70;;;;;;;33.42;35.27;100354.55;125322;1105;102659;-80
2023/08/24 10:36:34;;;;;;;10.03;5.37;;;;;;;33.27;35.16;100351.81;125818;1105;102089;-78
2023/08/24 10:39:31;;;;;;;8.98;4.58;;;;;;;33.24;35.22;100345.67;126408;1104;101699;-82
2023/08/24 10:42:17;;;;;;;8.70;4.60;;;;;;;33.06;35.11;100337.65;124775;1105;104219;-79
2023/08/24 10:45:05;;;;;;;8.97;4.63;;;;;;;32.94;34.66;100341.11;124356;1105;104310;-81
2023/08/24 10:55:39;;;;;;;;;;;;;;;;;;;;;
2023/08/24 10:59:10;;;;;;;10.53;4.73;;;;;;;32.78;34.24;100322.15;125636;1105;101844;-81
2023/08/24 11:02:12;;;;;;;;;;;;;;;;;;;;;
2023/08/24 11:05:18;;;;;;;9.60;5.17;;;;;;;32.94;34.20;100312.12;124418;1105;104261;-77
2023/08/24 11:07:59;;;;;;;10.97;4.70;;;;;;;33.15;34.29;100314.48;125859;1105;104192;-79
2023/08/24 11:10:53;;;;;;;7.63;4.60;;;;;;;33.30;34.05;100313.56;124870;1105;104307;-80
2023/08/24 11:14:25;;;;;;;10.65;4.70;;;;;;;33.55;34.14;100311.13;123997;1105;104246;-78
2023/08/24 11:17:33;;;;;;;9.87;4.63;;;;;;;33.68;34.21;100307.53;125693;1105;101827;-80
2023/08/24 11:20:24;;;;;;;8.63;4.50;;;;;;;33.74;33.83;100310.84;125128;1105;104304;-79
2023/08/24 11:23:26;;;;;;;;;;;;;;;;;;;;;
2023/08/24 11:26:18;;;;;;;7.93;4.27;;;;;;;33.75;33.73;100304.45;125616;1105;101788;-81
2023/08/24 11:29:09;;;;;;;9.57;4.77;;;;;;;33.65;32.94;100307.72;124739;1105;104322;-80
2023/08/24 11:35:21;;;;;;;9.20;4.53;;;;;;;33.31;32.41;100301.70;126268;1105;102294;-84
2023/08/24 11:38:16;;;;;;;7.30;4.27;;;;;;;33.20;32.78;100290.63;126297;1104;101658;-80
2023/08/24 11:41:11;;;;;;;12.63;4.60;;;;;;;33.00;32.81;100286.39;125028;1109;102088;-80
2023/08/24 11:48:18;;;;;;;6.40;4.43;;;;;;;32.88;33.02;100279.88;125074;1109;102033;-82
2023/08/24 11:51:56;;;;;;;;;;;;;;;;;;;;;
2023/08/24 11:55:27;;;;;;;10.17;4.83;;;;;;;33.15;32.87;100270.98;124322;1109;104277;-80
2023/08/24 11:58:24;;;;;;;7.43;4.53;;;;;;;33.26;33.03;100263.06;125191;1109;101891;-82
2023/08/24 12:01:10;;;;;;;9.60;4.37;;;;;;;33.42;32.96;100257.52;124467;1109;104421;-78
2023/08/24 12:04:29;;;;;;;;;;;;;;;;;;;;;
2023/08/24 12:07:46;;;;;;;9.13;4.63;;;;;;;33.68;32.29;100263.13;124792;1109;117915;-78
2023/08/24 12:10:56;;;;;;;7.13;4.43;;;;;;;33.63;31.94;100260.71;124029;1109;104176;-81
2023/08/24 12:14:09;;;;;;;7.23;4.60;;;;;;;33.66;31.93;100256.93;125254;1108;104421;-79
2023/08/24 12:17:22;;;;;;;6.90;4.30;;;;;;;33.65;31.58;100247.88;124184;1105;102367;-77
2023/08/24 12:20:06;;;;;;;8.30;4.43;;;;;;;33.66;31.27;100238.75;125645;1104;101828;-79